Terminal Aerodrome Forecast
Issued by NWS

Home | Current Version | Previous Version | Text Only | Print | Product List | Glossary On
Versions: 1 2 3 4 5 6 7 8 9 10 11 12 13 14 15
055
FTUS46 KPDT 221722
TAFDLS
TAF
KDLS 221722Z 2218/2318 31020G28KT P6SM VCSH SCT050 OVC080
     FM230300 31015G20KT P6SM OVC100
     FM231300 32015G25KT P6SM -SHRA BKN035 OVC050=

USA.gov is the U.S. government's official web portal to all federal, state and local government web resources and services.